Time;durP1;ratioP1;P1;durP2;ratioP2;P2;SDS_P1;SDS_P2;PMS_P1;PMS_P2;Temp;Humidity;BMP_temperature;BMP_pressure;BME280_temperature;BME280_humidity;BME280_pressure;Samples;Min_cycle;Max_cycle;Signal;HPM_P1;HPM_P2
2023/09/27 00:01:11;;;;;;;11.20;6.50;;;;;;;;;;5179526;27;20397;-73
2023/09/27 00:03:56;;;;;;;9.75;6.15;;;;;;;;;;5164032;27;20022;-72
2023/09/27 00:06:42;;;;;;;9.23;6.40;;;;;;;;;;5163984;27;20026;-73
2023/09/27 00:09:30;;;;;;;16.98;6.88;;;;;;;;;;5178508;27;20030;-73
2023/09/27 00:12:15;;;;;;;9.57;6.05;;;;;;;;;;5178612;27;20467;-73
2023/09/27 00:15:02;;;;;;;10.55;6.28;;;;;;;;;;5178655;27;20316;-73
2023/09/27 00:17:48;;;;;;;11.93;5.97;;;;;;;;;;5179576;27;20018;-72
2023/09/27 00:20:33;;;;;;;16.33;6.80;;;;;;;;;;5178922;27;20018;-73
2023/09/27 00:23:19;;;;;;;15.23;6.70;;;;;;;;;;5178377;27;20022;-73
2023/09/27 00:26:05;;;;;;;13.82;6.60;;;;;;;;;;5179247;27;20018;-72
2023/09/27 00:28:50;;;;;;;14.20;6.93;;;;;;;;;;5178213;27;20339;-72
2023/09/27 00:31:36;;;;;;;12.25;6.57;;;;;;;;;;5179082;27;20018;-73
2023/09/27 00:34:21;;;;;;;12.13;6.43;;;;;;;;;;5178906;27;20018;-72
2023/09/27 00:37:07;;;;;;;7.80;6.43;;;;;;;;;;5177975;27;20101;-72
2023/09/27 00:39:52;;;;;;;11.90;6.30;;;;;;;;;;5178267;27;20038;-73
2023/09/27 00:42:38;;;;;;;8.13;6.00;;;;;;;;;;5178322;27;20109;-72
2023/09/27 00:45:24;;;;;;;9.95;6.55;;;;;;;;;;5164166;27;20030;-72
2023/09/27 00:48:09;;;;;;;10.77;6.22;;;;;;;;;;5179716;27;20459;-71
2023/09/27 00:50:55;;;;;;;13.02;6.60;;;;;;;;;;5177084;27;20349;-71
2023/09/27 00:53:42;;;;;;;12.23;6.15;;;;;;;;;;5177940;27;20019;-72
2023/09/27 00:56:28;;;;;;;10.48;6.30;;;;;;;;;;5162839;27;20014;-73
2023/09/27 00:59:15;;;;;;;15.65;6.65;;;;;;;;;;5177259;27;20023;-73
2023/09/27 01:02:00;;;;;;;20.42;6.78;;;;;;;;;;5178615;27;20030;-72
2023/09/27 01:04:46;;;;;;;8.68;6.03;;;;;;;;;;5162931;27;20018;-72
2023/09/27 01:07:31;;;;;;;9.80;6.30;;;;;;;;;;5177495;27;20110;-72
2023/09/27 01:10:17;;;;;;;10.90;6.40;;;;;;;;;;5177429;27;20353;-72
2023/09/27 01:13:04;;;;;;;11.05;6.20;;;;;;;;;;5178166;27;20406;-72
2023/09/27 01:15:49;;;;;;;9.48;6.22;;;;;;;;;;5177980;27;20090;-71
2023/09/27 01:18:35;;;;;;;11.57;6.90;;;;;;;;;;5179235;27;20014;-73
2023/09/27 01:21:21;;;;;;;15.73;6.82;;;;;;;;;;5162990;27;20363;-72
2023/09/27 01:24:06;;;;;;;11.65;6.50;;;;;;;;;;5177402;27;20352;-72
2023/09/27 01:26:54;;;;;;;14.93;6.68;;;;;;;;;;5177992;27;20018;-72
2023/09/27 01:29:39;;;;;;;13.30;6.75;;;;;;;;;;5177911;27;20026;-73
2023/09/27 01:32:25;;;;;;;9.75;7.03;;;;;;;;;;5176876;27;20011;-73
2023/09/27 01:35:11;;;;;;;12.80;6.47;;;;;;;;;;5178056;27;20418;-73
2023/09/27 01:37:56;;;;;;;10.88;6.50;;;;;;;;;;5177669;27;20032;-72
2023/09/27 01:40:42;;;;;;;14.07;6.43;;;;;;;;;;5175936;27;20010;-73
2023/09/27 01:43:28;;;;;;;13.57;6.43;;;;;;;;;;5176668;27;20380;-74
2023/09/27 01:46:14;;;;;;;15.43;6.82;;;;;;;;;;5176524;27;20033;-74
2023/09/27 01:49:00;;;;;;;12.23;6.53;;;;;;;;;;5177274;27;20370;-73
2023/09/27 01:51:45;;;;;;;11.65;7.25;;;;;;;;;;5177617;27;20024;-73
2023/09/27 01:54:31;;;;;;;9.63;6.72;;;;;;;;;;5176289;27;20097;-74
2023/09/27 01:57:17;;;;;;;12.40;7.22;;;;;;;;;;5176602;27;20022;-73
2023/09/27 02:00:05;;;;;;;10.20;7.22;;;;;;;;;;5177089;27;20097;-74
2023/09/27 02:02:55;;;;;;;13.82;6.50;;;;;;;;;;5176573;27;20078;-74
2023/09/27 02:05:41;;;;;;;12.13;6.55;;;;;;;;;;5161562;27;20423;-73
2023/09/27 02:08:26;;;;;;;13.00;7.25;;;;;;;;;;5176282;27;20046;-73
2023/09/27 02:11:13;;;;;;;18.50;6.82;;;;;;;;;;5161928;27;20014;-73
2023/09/27 02:13:58;;;;;;;19.73;7.65;;;;;;;;;;5177173;27;20412;-72
2023/09/27 02:16:46;;;;;;;15.43;7.07;;;;;;;;;;5176490;27;20038;-72
2023/09/27 02:19:32;;;;;;;14.05;7.00;;;;;;;;;;5175864;27;20041;-73
2023/09/27 02:22:18;;;;;;;12.13;7.35;;;;;;;;;;5177020;27;20045;-72
2023/09/27 02:25:08;;;;;;;15.02;7.20;;;;;;;;;;5161390;27;20380;-73
2023/09/27 02:27:54;;;;;;;10.88;7.13;;;;;;;;;;5160679;27;20019;-73
2023/09/27 02:30:39;;;;;;;15.75;7.25;;;;;;;;;;5175153;27;20424;-73
2023/09/27 02:33:26;;;;;;;15.07;7.10;;;;;;;;;;5176438;27;20140;-73
2023/09/27 02:36:12;;;;;;;13.88;7.13;;;;;;;;;;5160855;27;20087;-73
2023/09/27 02:38:58;;;;;;;16.55;7.68;;;;;;;;;;5160935;27;20014;-73
2023/09/27 02:41:44;;;;;;;14.15;7.85;;;;;;;;;;5176539;27;20014;-72
2023/09/27 02:44:29;;;;;;;15.65;7.88;;;;;;;;;;5161018;27;20061;-73
2023/09/27 02:47:15;;;;;;;9.38;7.13;;;;;;;;;;5175842;27;20018;-73
2023/09/27 02:50:01;;;;;;;16.42;7.63;;;;;;;;;;5175457;27;20046;-73
2023/09/27 02:52:47;;;;;;;10.88;7.65;;;;;;;;;;5160359;27;20423;-73
2023/09/27 02:55:33;;;;;;;16.13;7.25;;;;;;;;;;5176638;27;20033;-73
2023/09/27 02:58:19;;;;;;;11.95;7.10;;;;;;;;;;5175790;27;20399;-72
2023/09/27 03:01:08;;;;;;;15.05;7.10;;;;;;;;;;5160726;27;20388;-74
2023/09/27 03:03:55;;;;;;;14.73;7.60;;;;;;;;;;5175240;27;20367;-73
2023/09/27 03:06:41;;;;;;;16.25;7.38;;;;;;;;;;5176219;27;20033;-74
2023/09/27 03:09:27;;;;;;;11.75;7.53;;;;;;;;;;5175624;27;20393;-73
2023/09/27 03:12:13;;;;;;;14.38;7.88;;;;;;;;;;5175762;27;20410;-73
2023/09/27 03:14:58;;;;;;;14.32;7.38;;;;;;;;;;5159184;27;20101;-72
2023/09/27 03:17:44;;;;;;;15.10;7.82;;;;;;;;;;5175983;27;20019;-72
2023/09/27 03:20:32;;;;;;;13.75;7.75;;;;;;;;;;5160952;27;20034;-72
2023/09/27 03:23:17;;;;;;;14.02;8.27;;;;;;;;;;5179521;27;20341;-72
2023/09/27 03:26:04;;;;;;;12.88;7.93;;;;;;;;;;5180432;27;20113;-72
2023/09/27 03:28:50;;;;;;;20.23;7.90;;;;;;;;;;5181011;27;20037;-72
2023/09/27 03:31:35;;;;;;;16.05;8.02;;;;;;;;;;5180197;27;20014;-72
2023/09/27 03:34:21;;;;;;;14.90;8.02;;;;;;;;;;5179922;27;20067;-72
2023/09/27 03:37:08;;;;;;;12.65;7.95;;;;;;;;;;5179938;27;20027;-73
2023/09/27 03:39:55;;;;;;;19.67;8.32;;;;;;;;;;5179103;27;20085;-72
2023/09/27 03:42:42;;;;;;;14.43;7.53;;;;;;;;;;5179941;27;20448;-72
2023/09/27 03:45:30;;;;;;;13.02;7.32;;;;;;;;;;5179664;27;20423;-72
2023/09/27 03:48:16;;;;;;;15.88;7.47;;;;;;;;;;5179111;27;20033;-72
2023/09/27 03:51:01;;;;;;;17.90;7.55;;;;;;;;;;5179206;27;20058;-72
2023/09/27 03:53:47;;;;;;;12.25;6.82;;;;;;;;;;5164716;27;20023;-71
2023/09/27 03:56:32;;;;;;;9.20;6.68;;;;;;;;;;5178792;27;20014;-71
2023/09/27 03:59:18;;;;;;;14.52;7.22;;;;;;;;;;5179386;27;20359;-71
2023/09/27 04:02:04;;;;;;;14.80;7.03;;;;;;;;;;5179861;27;20037;-72
2023/09/27 04:04:50;;;;;;;15.27;7.30;;;;;;;;;;5178554;27;20081;-71
2023/09/27 04:07:35;;;;;;;19.52;6.95;;;;;;;;;;5179121;27;20026;-72
2023/09/27 04:10:21;;;;;;;11.32;7.50;;;;;;;;;;5179441;27;20029;-72
2023/09/27 04:13:06;;;;;;;16.77;7.15;;;;;;;;;;5178853;27;20017;-71
2023/09/27 04:15:52;;;;;;;15.82;6.70;;;;;;;;;;5163770;27;20010;-71
2023/09/27 04:18:38;;;;;;;15.07;6.80;;;;;;;;;;5163775;27;20014;-71
2023/09/27 04:21:23;;;;;;;12.38;6.43;;;;;;;;;;5162745;27;20097;-71
2023/09/27 04:24:09;;;;;;;15.55;6.93;;;;;;;;;;5179280;27;20041;-71
2023/09/27 04:26:55;;;;;;;18.35;6.93;;;;;;;;;;5177967;27;20026;-70
2023/09/27 04:29:41;;;;;;;14.98;7.03;;;;;;;;;;5162827;27;20025;-71
2023/09/27 04:32:29;;;;;;;16.15;6.45;;;;;;;;;;5177883;27;20458;-70
2023/09/27 04:35:15;;;;;;;14.25;6.35;;;;;;;;;;5178385;27;20018;-71
2023/09/27 04:38:00;;;;;;;13.48;6.63;;;;;;;;;;5178544;27;20098;-70
2023/09/27 04:40:46;;;;;;;10.05;5.93;;;;;;;;;;5178439;27;20347;-70
2023/09/27 04:43:32;;;;;;;18.77;6.82;;;;;;;;;;5162492;27;20456;-70
2023/09/27 04:46:18;;;;;;;13.48;6.30;;;;;;;;;;5178037;27;20030;-71
2023/09/27 04:49:03;;;;;;;18.67;6.35;;;;;;;;;;5162205;27;20118;-71
2023/09/27 04:51:49;;;;;;;20.42;6.82;;;;;;;;;;5177802;27;20025;-70
2023/09/27 04:54:34;;;;;;;11.70;5.95;;;;;;;;;;5177599;27;20409;-71
2023/09/27 04:57:20;;;;;;;11.02;6.03;;;;;;;;;;5162946;27;20099;-72
2023/09/27 05:00:11;;;;;;;14.00;5.97;;;;;;;;;;5163157;27;20022;-72
2023/09/27 05:02:57;;;;;;;10.63;5.60;;;;;;;;;;5177451;27;20109;-70
2023/09/27 05:05:43;;;;;;;15.40;6.75;;;;;;;;;;5178409;27;20336;-72
2023/09/27 05:08:29;;;;;;;15.80;6.43;;;;;;;;;;5177621;27;20022;-71
2023/09/27 05:11:14;;;;;;;17.90;6.00;;;;;;;;;;5177889;27;20018;-71
2023/09/27 05:14:01;;;;;;;10.32;6.10;;;;;;;;;;5177534;27;20014;-72
2023/09/27 05:16:47;;;;;;;9.63;5.57;;;;;;;;;;5161436;27;20033;-71
2023/09/27 05:19:32;;;;;;;12.35;6.05;;;;;;;;;;5176903;27;20010;-71
2023/09/27 05:22:21;;;;;;;13.10;5.22;;;;;;;;;;5177860;27;20022;-71
2023/09/27 05:25:08;;;;;;;10.73;5.60;;;;;;;;;;5161911;27;20464;-72
2023/09/27 05:27:54;;;;;;;16.02;5.93;;;;;;;;;;5162367;27;20033;-72
2023/09/27 05:30:41;;;;;;;12.60;5.30;;;;;;;;;;5162892;27;20014;-72
2023/09/27 05:33:27;;;;;;;16.08;6.13;;;;;;;;;;5162623;27;20018;-70
2023/09/27 05:36:13;;;;;;;13.02;6.35;;;;;;;;;;5163046;27;20086;-71
2023/09/27 05:38:59;;;;;;;19.17;5.47;;;;;;;;;;5176468;27;20029;-71
2023/09/27 05:41:45;;;;;;;11.20;6.00;;;;;;;;;;5176650;27;20072;-71
2023/09/27 05:44:30;;;;;;;15.70;6.15;;;;;;;;;;5177264;27;20021;-71
2023/09/27 05:47:16;;;;;;;10.85;5.80;;;;;;;;;;5161031;27;20014;-71
2023/09/27 05:50:04;;;;;;;13.50;6.13;;;;;;;;;;5176323;27;20050;-72
2023/09/27 05:52:49;;;;;;;11.68;5.90;;;;;;;;;;5175919;27;20022;-72
2023/09/27 05:55:35;;;;;;;15.45;5.88;;;;;;;;;;5161436;27;20025;-72
2023/09/27 05:58:21;;;;;;;11.13;5.85;;;;;;;;;;5177164;27;20109;-70
2023/09/27 06:01:08;;;;;;;12.57;6.85;;;;;;;;;;5176778;27;20054;-72
2023/09/27 06:03:54;;;;;;;14.23;6.57;;;;;;;;;;5160651;27;20086;-71
2023/09/27 06:06:40;;;;;;;16.80;6.40;;;;;;;;;;5176294;27;20496;-72
2023/09/27 06:09:25;;;;;;;15.32;5.90;;;;;;;;;;5161596;27;20033;-71
2023/09/27 06:12:12;;;;;;;11.02;6.07;;;;;;;;;;5176585;27;20061;-72
2023/09/27 06:14:57;;;;;;;13.35;5.45;;;;;;;;;;5161666;27;20018;-72
2023/09/27 06:17:43;;;;;;;12.60;5.97;;;;;;;;;;5176932;27;20499;-71
2023/09/27 06:20:30;;;;;;;12.45;5.60;;;;;;;;;;5175511;27;20034;-71
2023/09/27 06:23:15;;;;;;;11.88;5.88;;;;;;;;;;5176776;27;20470;-71
2023/09/27 06:26:02;;;;;;;10.65;5.68;;;;;;;;;;5161135;27;20037;-71
2023/09/27 06:28:47;;;;;;;10.80;5.80;;;;;;;;;;5176282;27;20450;-72
2023/09/27 06:31:34;;;;;;;19.05;6.13;;;;;;;;;;5161889;27;20112;-72
2023/09/27 06:34:19;;;;;;;15.18;6.20;;;;;;;;;;5160247;27;20053;-73
2023/09/27 06:37:07;;;;;;;13.95;5.82;;;;;;;;;;5176063;27;20026;-71
2023/09/27 06:39:52;;;;;;;17.63;5.63;;;;;;;;;;5161263;27;20018;-71
2023/09/27 06:42:38;;;;;;;13.50;5.95;;;;;;;;;;5176438;27;20022;-72
2023/09/27 06:45:23;;;;;;;12.32;5.80;;;;;;;;;;5161117;27;20158;-72
2023/09/27 06:48:09;;;;;;;15.75;6.30;;;;;;;;;;5175807;27;20026;-71
2023/09/27 06:50:55;;;;;;;14.93;6.03;;;;;;;;;;5160495;27;20074;-72
2023/09/27 06:53:42;;;;;;;18.00;5.78;;;;;;;;;;5175551;27;20051;-71
2023/09/27 06:56:27;;;;;;;13.35;5.70;;;;;;;;;;5159954;27;20355;-71
2023/09/27 06:59:13;;;;;;;15.93;6.18;;;;;;;;;;5160125;27;20038;-72
2023/09/27 07:01:59;;;;;;;19.15;6.60;;;;;;;;;;5176821;27;20054;-70
2023/09/27 07:04:46;;;;;;;15.23;6.22;;;;;;;;;;5176060;27;20037;-70
2023/09/27 07:07:31;;;;;;;17.25;6.55;;;;;;;;;;5175770;27;20026;-69
2023/09/27 07:10:17;;;;;;;17.77;6.57;;;;;;;;;;5176204;27;20501;-74
2023/09/27 07:13:03;;;;;;;14.73;6.00;;;;;;;;;;5161002;27;20359;-71
2023/09/27 07:15:49;;;;;;;9.93;5.85;;;;;;;;;;5175091;27;20022;-73
2023/09/27 07:18:35;;;;;;;13.77;5.68;;;;;;;;;;5175276;27;20029;-72
2023/09/27 07:21:24;;;;;;;13.60;6.18;;;;;;;;;;5177018;27;20026;-74
2023/09/27 07:24:10;;;;;;;22.90;5.90;;;;;;;;;;5178019;27;20018;-74
2023/09/27 07:26:56;;;;;;;9.15;5.97;;;;;;;;;;5175290;27;20022;-73
2023/09/27 07:29:42;;;;;;;14.55;5.55;;;;;;;;;;5176068;27;20018;-73
2023/09/27 07:32:28;;;;;;;14.95;6.10;;;;;;;;;;5175148;27;20046;-73
2023/09/27 07:35:17;;;;;;;10.90;5.82;;;;;;;;;;5175363;27;20037;-74
2023/09/27 07:38:03;;;;;;;11.85;5.20;;;;;;;;;;5175595;27;20022;-73
2023/09/27 07:40:49;;;;;;;13.73;5.63;;;;;;;;;;5175437;27;20373;-74
2023/09/27 07:43:36;;;;;;;16.92;5.50;;;;;;;;;;5175618;27;20030;-73
2023/09/27 07:46:21;;;;;;;18.45;5.68;;;;;;;;;;5175864;27;20093;-74
2023/09/27 07:49:08;;;;;;;20.27;5.50;;;;;;;;;;5175496;27;20094;-72
2023/09/27 07:51:53;;;;;;;14.40;5.63;;;;;;;;;;5175299;27;20109;-73
2023/09/27 07:54:39;;;;;;;11.73;5.72;;;;;;;;;;5175292;27;20018;-72
2023/09/27 07:57:25;;;;;;;15.63;5.57;;;;;;;;;;5175709;27;20030;-73
2023/09/27 08:00:11;;;;;;;16.90;5.78;;;;;;;;;;5175897;27;20187;-74
2023/09/27 08:02:58;;;;;;;15.43;5.70;;;;;;;;;;5176929;27;20037;-72
2023/09/27 08:05:44;;;;;;;16.15;5.50;;;;;;;;;;5174340;27;20029;-74
2023/09/27 08:08:30;;;;;;;10.90;5.10;;;;;;;;;;5163984;27;20041;-73
2023/09/27 08:11:16;;;;;;;12.02;5.60;;;;;;;;;;5163545;27;20010;-72
2023/09/27 08:14:01;;;;;;;12.43;5.38;;;;;;;;;;5164598;27;20097;-77
2023/09/27 08:16:47;;;;;;;17.75;5.57;;;;;;;;;;5180145;27;20022;-77
2023/09/27 08:19:33;;;;;;;12.45;5.60;;;;;;;;;;5166381;27;20053;-77
2023/09/27 08:22:19;;;;;;;13.70;5.75;;;;;;;;;;5180210;27;20022;-78
2023/09/27 08:25:05;;;;;;;11.63;5.47;;;;;;;;;;5180637;27;20024;-79
2023/09/27 08:27:51;;;;;;;15.23;5.90;;;;;;;;;;5180941;27;20030;-77
2023/09/27 08:30:36;;;;;;;14.05;5.55;;;;;;;;;;5180730;27;20014;-78
2023/09/27 08:33:22;;;;;;;17.45;6.25;;;;;;;;;;5180477;27;20068;-77
2023/09/27 08:36:08;;;;;;;12.20;5.50;;;;;;;;;;5169239;27;20022;-72
2023/09/27 08:38:53;;;;;;;12.00;5.30;;;;;;;;;;5178639;27;20325;-72
2023/09/27 08:41:39;;;;;;;12.93;5.28;;;;;;;;;;5177313;27;20015;-71
2023/09/27 08:44:25;;;;;;;17.75;6.00;;;;;;;;;;5178309;27;20023;-70
2023/09/27 08:47:11;;;;;;;11.55;5.43;;;;;;;;;;5178453;27;20042;-72
2023/09/27 08:49:58;;;;;;;12.50;5.40;;;;;;;;;;5163665;27;20053;-74
2023/09/27 08:52:48;;;;;;;14.63;5.57;;;;;;;;;;5178689;27;20046;-72
2023/09/27 08:55:34;;;;;;;11.68;5.80;;;;;;;;;;5178386;27;20018;-72
2023/09/27 08:58:23;;;;;;;13.80;5.28;;;;;;;;;;5177491;27;20024;-71
2023/09/27 09:01:09;;;;;;;11.73;4.65;;;;;;;;;;5163894;27;20051;-77
2023/09/27 09:03:55;;;;;;;12.07;5.10;;;;;;;;;;5178557;27;20078;-75
2023/09/27 09:06:41;;;;;;;11.45;4.70;;;;;;;;;;5178009;27;20018;-71
2023/09/27 09:09:27;;;;;;;13.70;5.75;;;;;;;;;;5163910;27;20014;-72
2023/09/27 09:12:12;;;;;;;10.50;4.80;;;;;;;;;;5178092;27;20018;-71
2023/09/27 09:14:58;;;;;;;10.90;4.70;;;;;;;;;;5179776;27;20018;-74
2023/09/27 09:17:47;;;;;;;9.18;4.50;;;;;;;;;;5178104;27;20022;-75
2023/09/27 09:20:48;;;;;;;18.65;5.10;;;;;;;;;;5163524;27;20406;-74
2023/09/27 09:23:35;;;;;;;14.07;4.70;;;;;;;;;;5163534;27;20041;-75
2023/09/27 09:26:28;;;;;;;10.00;4.97;;;;;;;;;;5178768;27;20038;-71
2023/09/27 09:29:14;;;;;;;13.38;4.90;;;;;;;;;;5177418;27;20064;-72
2023/09/27 09:32:03;;;;;;;17.95;4.60;;;;;;;;;;5177472;27;20022;-73
2023/09/27 09:34:50;;;;;;;7.50;4.22;;;;;;;;;;5177456;27;20444;-72
2023/09/27 09:37:35;;;;;;;10.52;4.50;;;;;;;;;;5162099;27;20034;-71
2023/09/27 09:40:21;;;;;;;12.77;4.60;;;;;;;;;;5162380;27;20017;-72
2023/09/27 09:43:08;;;;;;;11.57;4.95;;;;;;;;;;5161582;27;20484;-72
2023/09/27 09:45:54;;;;;;;19.33;5.10;;;;;;;;;;5162783;27;20022;-73
2023/09/27 09:48:40;;;;;;;12.82;4.57;;;;;;;;;;5161871;27;20388;-73
2023/09/27 09:51:26;;;;;;;10.32;4.15;;;;;;;;;;5177639;27;20022;-72
2023/09/27 09:54:11;;;;;;;9.25;3.58;;;;;;;;;;5177826;27;20073;-75
2023/09/27 09:56:59;;;;;;;13.50;4.30;;;;;;;;;;5178272;27;20021;-75
2023/09/27 09:59:45;;;;;;;14.07;4.65;;;;;;;;;;5177269;27;20466;-76
2023/09/27 10:02:32;;;;;;;11.90;4.25;;;;;;;;;;5176665;27;20101;-75
2023/09/27 10:05:19;;;;;;;10.05;4.28;;;;;;;;;;5176438;27;20026;-76
2023/09/27 10:08:05;;;;;;;11.63;4.13;;;;;;;;;;5178806;27;20037;-76
2023/09/27 10:10:51;;;;;;;15.30;4.32;;;;;;;;;;5175756;27;20332;-77
2023/09/27 10:13:39;;;;;;;9.35;4.30;;;;;;;;;;5161780;27;20385;-76
2023/09/27 10:16:24;;;;;;;34.75;5.65;;;;;;;;;;5162039;27;20018;-76
2023/09/27 10:19:10;;;;;;;14.30;4.30;;;;;;;;;;5161140;27;20022;-76
2023/09/27 10:22:05;;;;;;;15.93;4.50;;;;;;;;;;5176436;27;20033;-76
2023/09/27 10:24:51;;;;;;;15.70;4.20;;;;;;;;;;5176628;27;20408;-77
2023/09/27 10:27:55;;;;;;;21.30;4.63;;;;;;;;;;5177240;27;20448;-77
2023/09/27 10:30:41;;;;;;;15.65;4.18;;;;;;;;;;5175651;27;20432;-78
2023/09/27 10:33:28;;;;;;;11.52;4.15;;;;;;;;;;5177701;27;20018;-77
2023/09/27 10:36:15;;;;;;;13.90;3.97;;;;;;;;;;5164086;27;20109;-77
2023/09/27 10:39:01;;;;;;;10.55;4.13;;;;;;;;;;5176968;27;20392;-78
2023/09/27 10:41:48;;;;;;;10.95;3.80;;;;;;;;;;5177049;27;20037;-75
2023/09/27 10:44:35;;;;;;;12.38;4.22;;;;;;;;;;5176354;27;20102;-76
2023/09/27 10:47:25;;;;;;;10.73;4.75;;;;;;;;;;5177306;27;20491;-77
2023/09/27 10:50:11;;;;;;;30.45;4.82;;;;;;;;;;5176637;27;20064;-76
2023/09/27 10:52:57;;;;;;;10.05;3.70;;;;;;;;;;5160732;27;20057;-76
2023/09/27 10:55:43;;;;;;;6.50;3.63;;;;;;;;;;5176785;27;20316;-77
2023/09/27 10:58:28;;;;;;;10.82;4.47;;;;;;;;;;5176794;27;20105;-77
2023/09/27 11:01:18;;;;;;;10.60;3.55;;;;;;;;;;5176920;27;20411;-73
2023/09/27 11:04:04;;;;;;;9.65;3.92;;;;;;;;;;5178743;27;20049;-77
2023/09/27 11:06:50;;;;;;;9.88;3.53;;;;;;;;;;5177773;27;20347;-77
2023/09/27 11:09:43;;;;;;;18.38;4.43;;;;;;;;;;5176154;27;20019;-78
2023/09/27 11:12:29;;;;;;;8.15;4.07;;;;;;;;;;5176807;27;20125;-76
2023/09/27 11:15:21;;;;;;;9.88;3.70;;;;;;;;;;5160224;27;20051;-79
2023/09/27 11:18:07;;;;;;;7.53;3.70;;;;;;;;;;5178382;27;20051;-76
2023/09/27 11:20:53;;;;;;;11.93;4.03;;;;;;;;;;5161308;27;20026;-76
2023/09/27 11:23:54;;;;;;;10.80;3.83;;;;;;;;;;5175502;27;20213;-77
2023/09/27 11:26:42;;;;;;;9.27;3.63;;;;;;;;;;5162864;27;20072;-77
2023/09/27 11:29:28;;;;;;;13.05;4.40;;;;;;;;;;5178515;27;20470;-77
2023/09/27 11:32:14;;;;;;;12.48;3.75;;;;;;;;;;5161348;27;20029;-80
2023/09/27 11:35:01;;;;;;;9.82;3.78;;;;;;;;;;5175334;27;20022;-77
2023/09/27 11:37:50;;;;;;;9.07;3.65;;;;;;;;;;5178190;27;20022;-76
2023/09/27 11:40:37;;;;;;;14.10;3.88;;;;;;;;;;5176118;27;20461;-78
2023/09/27 11:43:31;;;;;;;8.13;3.75;;;;;;;;;;5181810;27;20033;-76
2023/09/27 11:46:31;;;;;;;9.68;4.05;;;;;;;;;;5164938;27;20010;-76
2023/09/27 11:49:17;;;;;;;10.57;4.18;;;;;;;;;;5179347;27;20399;-76
2023/09/27 11:52:10;;;;;;;21.38;4.13;;;;;;;;;;5182435;27;20010;-77
2023/09/27 11:54:55;;;;;;;9.07;3.45;;;;;;;;;;5183910;27;20356;-78
2023/09/27 11:57:41;;;;;;;12.77;3.63;;;;;;;;;;5167570;27;20440;-74
2023/09/27 12:00:28;;;;;;;9.82;3.40;;;;;;;;;;5173975;27;20014;-75
2023/09/27 12:03:14;;;;;;;9.05;3.40;;;;;;;;;;5178895;27;20022;-76
2023/09/27 12:06:00;;;;;;;13.10;5.10;;;;;;;;;;5179328;27;20105;-74
2023/09/27 12:08:45;;;;;;;15.77;3.80;;;;;;;;;;5179562;27;20045;-75
2023/09/27 12:11:31;;;;;;;10.77;4.18;;;;;;;;;;5179535;27;20026;-76
2023/09/27 12:14:17;;;;;;;8.73;3.92;;;;;;;;;;5164032;27;20018;-73
2023/09/27 12:17:03;;;;;;;12.23;4.00;;;;;;;;;;5157841;27;20023;-71
2023/09/27 12:19:49;;;;;;;7.45;4.25;;;;;;;;;;5143664;27;20543;-70
2023/09/27 12:22:34;;;;;;;10.52;4.68;;;;;;;;;;5157848;27;20437;-71
2023/09/27 12:25:20;;;;;;;12.38;4.30;;;;;;;;;;5143822;27;20110;-71
2023/09/27 12:28:06;;;;;;;9.13;3.97;;;;;;;;;;5142748;27;20022;-71
2023/09/27 12:30:52;;;;;;;11.65;4.47;;;;;;;;;;5143522;27;20011;-71
2023/09/27 12:33:37;;;;;;;14.52;4.45;;;;;;;;;;5158652;27;20018;-71
2023/09/27 12:36:23;;;;;;;13.48;4.22;;;;;;;;;;5158518;27;20345;-70
2023/09/27 12:39:10;;;;;;;15.00;4.50;;;;;;;;;;5157845;27;20027;-71
2023/09/27 12:42:00;;;;;;;9.85;3.97;;;;;;;;;;5143168;27;20068;-71
2023/09/27 12:44:45;;;;;;;11.68;4.00;;;;;;;;;;5157725;27;20022;-70
2023/09/27 12:47:31;;;;;;;11.85;4.13;;;;;;;;;;5143106;27;20097;-70
2023/09/27 12:50:20;;;;;;;17.30;4.28;;;;;;;;;;5142981;27;20051;-70
2023/09/27 12:53:06;;;;;;;9.55;3.80;;;;;;;;;;5144986;27;20055;-71
2023/09/27 12:55:51;;;;;;;10.35;4.30;;;;;;;;;;5162490;27;20025;-70
2023/09/27 12:58:37;;;;;;;13.45;4.10;;;;;;;;;;5163783;27;20018;-71
2023/09/27 13:01:23;;;;;;;11.40;3.72;;;;;;;;;;5178382;27;20082;-70
2023/09/27 13:04:09;;;;;;;8.25;3.70;;;;;;;;;;5163171;27;20018;-70
2023/09/27 13:06:55;;;;;;;11.60;3.67;;;;;;;;;;5176662;27;20340;-73
2023/09/27 13:09:41;;;;;;;13.80;4.00;;;;;;;;;;5163097;27;20019;-72
2023/09/27 13:12:27;;;;;;;12.43;4.07;;;;;;;;;;5163026;27;20046;-70
2023/09/27 13:15:13;;;;;;;8.60;3.92;;;;;;;;;;5163225;27;20014;-71
2023/09/27 13:17:59;;;;;;;17.00;3.95;;;;;;;;;;5176795;27;20033;-72
2023/09/27 13:20:44;;;;;;;8.35;3.40;;;;;;;;;;5177856;27;20015;-72
2023/09/27 13:23:31;;;;;;;7.72;3.10;;;;;;;;;;5177675;27;20422;-72
2023/09/27 13:26:17;;;;;;;11.60;3.20;;;;;;;;;;5161630;27;20074;-72
2023/09/27 13:29:03;;;;;;;10.55;3.58;;;;;;;;;;5177280;27;20014;-71
2023/09/27 13:31:50;;;;;;;17.13;3.38;;;;;;;;;;5177454;27;20437;-70
2023/09/27 13:34:35;;;;;;;11.60;3.03;;;;;;;;;;5177251;27;20360;-70
2023/09/27 13:37:21;;;;;;;10.27;3.20;;;;;;;;;;5163678;27;20439;-71
2023/09/27 13:40:12;;;;;;;10.52;3.58;;;;;;;;;;5179054;27;20027;-70
2023/09/27 13:42:58;;;;;;;17.35;3.72;;;;;;;;;;5177703;27;20046;-71
2023/09/27 13:45:43;;;;;;;7.55;3.78;;;;;;;;;;5180117;27;20093;-71
2023/09/27 13:48:29;;;;;;;7.20;3.15;;;;;;;;;;5175282;27;20018;-70
2023/09/27 13:51:15;;;;;;;23.65;3.58;;;;;;;;;;5176604;27;20178;-72
2023/09/27 13:54:04;;;;;;;12.77;3.95;;;;;;;;;;5166673;27;20014;-72
2023/09/27 13:56:49;;;;;;;17.30;3.40;;;;;;;;;;5158112;27;20018;-72
2023/09/27 13:59:38;;;;;;;14.30;3.47;;;;;;;;;;5156732;27;20405;-71
2023/09/27 14:02:23;;;;;;;10.48;3.55;;;;;;;;;;5156053;27;20083;-71
2023/09/27 14:05:09;;;;;;;10.23;3.42;;;;;;;;;;5156593;27;20022;-71
2023/09/27 14:07:54;;;;;;;17.95;3.72;;;;;;;;;;5154851;27;20119;-70
2023/09/27 14:10:40;;;;;;;13.30;3.05;;;;;;;;;;5154888;27;20014;-69
2023/09/27 14:13:26;;;;;;;5.25;3.10;;;;;;;;;;5155194;27;20018;-70
2023/09/27 14:16:12;;;;;;;6.50;3.20;;;;;;;;;;5154792;27;20024;-70
2023/09/27 14:18:57;;;;;;;13.63;3.70;;;;;;;;;;5154795;27;20106;-70
2023/09/27 14:21:44;;;;;;;9.63;3.78;;;;;;;;;;5155601;27;20019;-69
2023/09/27 14:24:32;;;;;;;7.68;3.53;;;;;;;;;;5154999;27;20036;-70
2023/09/27 14:27:17;;;;;;;12.23;3.65;;;;;;;;;;5155610;27;20023;-69
2023/09/27 14:30:04;;;;;;;11.85;3.50;;;;;;;;;;5154217;27;20143;-69
2023/09/27 14:32:50;;;;;;;11.23;3.10;;;;;;;;;;5154905;27;20026;-69
2023/09/27 14:35:36;;;;;;;10.65;4.07;;;;;;;;;;5155555;27;20014;-70
2023/09/27 14:38:21;;;;;;;16.73;3.65;;;;;;;;;;5154717;27;20060;-75
2023/09/27 14:41:08;;;;;;;10.20;3.40;;;;;;;;;;5154679;27;20058;-73
2023/09/27 14:44:00;;;;;;;9.35;3.35;;;;;;;;;;5155071;27;20102;-73
2023/09/27 14:46:45;;;;;;;7.97;3.40;;;;;;;;;;5156951;27;20018;-71
2023/09/27 14:49:31;;;;;;;9.45;3.58;;;;;;;;;;5156553;27;20046;-71
2023/09/27 14:52:17;;;;;;;8.50;3.20;;;;;;;;;;5155579;27;20014;-71
2023/09/27 14:55:03;;;;;;;7.43;3.40;;;;;;;;;;5175517;27;20019;-71
2023/09/27 14:57:48;;;;;;;11.27;3.90;;;;;;;;;;5161352;27;20040;-71
2023/09/27 15:00:34;;;;;;;6.85;3.25;;;;;;;;;;5175298;27;20109;-71
2023/09/27 15:03:19;;;;;;;10.70;3.45;;;;;;;;;;5162079;27;20023;-71
2023/09/27 15:06:05;;;;;;;7.05;3.15;;;;;;;;;;5179002;27;20010;-71
2023/09/27 15:08:51;;;;;;;11.98;3.40;;;;;;;;;;5177469;27;20022;-71
2023/09/27 15:11:36;;;;;;;8.02;3.25;;;;;;;;;;5182950;27;20014;-71
2023/09/27 15:14:22;;;;;;;14.25;3.40;;;;;;;;;;5153932;27;20036;-72
2023/09/27 15:17:08;;;;;;;10.10;3.55;;;;;;;;;;5183965;27;20030;-71
2023/09/27 15:19:53;;;;;;;6.32;3.30;;;;;;;;;;5172781;27;20018;-71
2023/09/27 15:22:40;;;;;;;6.78;3.47;;;;;;;;;;5172403;27;21172;-71
2023/09/27 15:25:26;;;;;;;6.57;3.00;;;;;;;;;;5173150;27;20047;-71
2023/09/27 15:28:11;;;;;;;6.32;3.40;;;;;;;;;;5189262;27;20030;-71
2023/09/27 15:30:57;;;;;;;10.43;3.50;;;;;;;;;;5190249;27;20094;-71
2023/09/27 15:33:43;;;;;;;9.13;3.47;;;;;;;;;;5189749;27;20028;-71
2023/09/27 15:36:29;;;;;;;12.80;3.67;;;;;;;;;;5191734;27;20026;-71
2023/09/27 15:39:19;;;;;;;7.28;3.47;;;;;;;;;;5189714;27;20034;-72
2023/09/27 15:42:05;;;;;;;5.53;3.40;;;;;;;;;;5173349;27;20019;-71
2023/09/27 15:44:50;;;;;;;7.75;3.33;;;;;;;;;;5184775;27;20026;-71
2023/09/27 15:47:36;;;;;;;15.13;3.33;;;;;;;;;;5165973;27;20032;-71
2023/09/27 15:50:22;;;;;;;9.13;3.10;;;;;;;;;;5180334;27;20049;-72
2023/09/27 15:53:07;;;;;;;9.90;3.30;;;;;;;;;;5178066;27;20040;-72
2023/09/27 15:55:53;;;;;;;15.13;3.42;;;;;;;;;;5160075;27;20045;-72
2023/09/27 15:58:39;;;;;;;8.63;3.33;;;;;;;;;;5159861;27;20038;-70
2023/09/27 16:01:24;;;;;;;9.57;3.20;;;;;;;;;;5160093;27;20026;-70
2023/09/27 16:04:10;;;;;;;8.35;3.35;;;;;;;;;;5160167;27;20038;-72
2023/09/27 16:06:56;;;;;;;4.22;3.05;;;;;;;;;;5159862;27;20018;-72
2023/09/27 16:09:41;;;;;;;8.40;3.38;;;;;;;;;;5169225;27;20015;-70
2023/09/27 16:12:27;;;;;;;6.65;3.17;;;;;;;;;;5170618;27;20029;-70
2023/09/27 16:15:13;;;;;;;9.32;3.40;;;;;;;;;;5171303;27;20102;-70
2023/09/27 16:17:58;;;;;;;11.60;3.08;;;;;;;;;;5167941;27;20496;-69
2023/09/27 16:20:44;;;;;;;4.53;2.80;;;;;;;;;;5168631;27;20078;-72
2023/09/27 16:23:30;;;;;;;9.45;2.88;;;;;;;;;;5169993;27;20037;-71
2023/09/27 16:26:16;;;;;;;11.30;3.35;;;;;;;;;;5169789;27;20023;-71